createdAt,value
2022-10-24T00:01:27.459Z,12.23
2022-10-24T00:03:55.069Z,9.57
2022-10-24T00:06:22.939Z,8.00
2022-10-24T00:08:50.551Z,7.60
2022-10-24T00:11:26.801Z,7.30
2022-10-24T00:13:56.884Z,7.00
2022-10-24T00:16:24.640Z,7.70
2022-10-24T00:18:52.161Z,8.27
2022-10-24T00:21:19.894Z,7.23
2022-10-24T00:23:47.661Z,7.90
2022-10-24T00:26:16.916Z,7.87
2022-10-24T00:28:44.909Z,7.73
2022-10-24T00:31:18.954Z,7.83
2022-10-24T00:33:47.425Z,7.93
2022-10-24T00:36:19.312Z,7.53
2022-10-24T00:38:47.180Z,7.97
2022-10-24T00:41:31.475Z,7.70
2022-10-24T00:44:26.725Z,8.30
2022-10-24T00:47:26.424Z,7.60
2022-10-24T00:50:12.115Z,8.17
2022-10-24T00:52:45.410Z,8.00
2022-10-24T00:55:14.834Z,8.57
2022-10-24T00:57:48.749Z,7.73
2022-10-24T01:00:26.019Z,7.77
2022-10-24T01:02:53.614Z,7.87
2022-10-24T01:05:24.599Z,8.50
2022-10-24T01:08:17.602Z,7.80
2022-10-24T01:11:19.091Z,7.97
2022-10-24T01:14:07.567Z,8.57
2022-10-24T01:16:43.551Z,7.87
2022-10-24T01:19:38.090Z,7.67
2022-10-24T01:22:20.015Z,8.10
2022-10-24T01:25:05.101Z,7.77
2022-10-24T01:28:03.488Z,7.47
2022-10-24T01:30:40.210Z,8.60
2022-10-24T01:33:31.345Z,8.33
2022-10-24T01:36:15.302Z,8.37
2022-10-24T01:38:52.523Z,8.23
2022-10-24T01:41:24.310Z,8.20
2022-10-24T01:44:17.843Z,8.70
2022-10-24T01:46:56.932Z,7.87
2022-10-24T01:49:31.864Z,8.43
2022-10-24T01:52:04.938Z,7.67
2022-10-24T01:54:34.325Z,8.10
2022-10-24T01:57:02.973Z,7.67
2022-10-24T01:59:30.279Z,7.70
2022-10-24T02:02:18.526Z,8.60
2022-10-24T02:04:51.780Z,8.40
2022-10-24T02:07:22.274Z,8.60
2022-10-24T02:09:58.803Z,8.30
2022-10-24T02:12:27.782Z,9.67
2022-10-24T02:15:06.938Z,8.53
2022-10-24T02:17:34.502Z,8.30
2022-10-24T02:20:02.932Z,8.03
2022-10-24T02:23:01.772Z,9.30
2022-10-24T02:25:36.056Z,8.87
2022-10-24T02:28:19.542Z,8.53
2022-10-24T02:31:11.007Z,8.57
2022-10-24T02:33:41.414Z,7.87
2022-10-24T02:36:12.760Z,8.67
2022-10-24T02:38:44.772Z,8.77
2022-10-24T02:41:19.250Z,8.33
2022-10-24T02:43:49.305Z,9.20
2022-10-24T02:46:18.980Z,8.50
2022-10-24T02:49:00.028Z,8.53
2022-10-24T02:51:33.644Z,9.10
2022-10-24T02:54:02.924Z,9.50
2022-10-24T02:56:31.138Z,8.80
2022-10-24T02:58:58.609Z,9.50
2022-10-24T03:01:26.546Z,10.10
2022-10-24T03:03:54.108Z,11.30
2022-10-24T03:06:21.566Z,10.37
2022-10-24T03:08:49.069Z,10.00
2022-10-24T03:11:16.694Z,10.30
2022-10-24T03:13:44.380Z,9.00
2022-10-24T03:16:14.073Z,8.27
2022-10-24T03:18:41.840Z,8.73
2022-10-24T03:21:09.484Z,8.97
2022-10-24T03:23:36.930Z,8.87
2022-10-24T03:26:04.569Z,8.10
2022-10-24T03:28:32.102Z,7.80
2022-10-24T03:30:59.553Z,7.53
2022-10-24T03:33:26.974Z,7.10
2022-10-24T03:35:55.061Z,8.47
2022-10-24T03:38:23.750Z,9.23
2022-10-24T03:40:51.703Z,8.70
2022-10-24T03:43:19.588Z,8.80
2022-10-24T03:45:47.042Z,8.97
2022-10-24T03:48:14.691Z,9.10
2022-10-24T03:50:42.269Z,8.70
2022-10-24T03:53:10.201Z,21.77
2022-10-24T03:55:38.367Z,26.07
2022-10-24T03:58:05.839Z,14.83
2022-10-24T04:00:39.119Z,10.13
2022-10-24T04:03:07.740Z,9.07
2022-10-24T04:05:35.298Z,9.20
2022-10-24T04:08:03.437Z,9.20
2022-10-24T04:10:30.939Z,9.20
2022-10-24T04:12:58.420Z,23.93
2022-10-24T04:15:25.840Z,15.47
2022-10-24T04:17:53.264Z,17.07
2022-10-24T04:20:22.648Z,13.73
2022-10-24T04:22:50.310Z,11.07
2022-10-24T04:25:18.765Z,9.60
2022-10-24T04:27:46.620Z,9.10
2022-10-24T04:30:16.541Z,8.07
2022-10-24T04:32:45.203Z,8.00
2022-10-24T04:35:14.118Z,8.20
2022-10-24T04:37:41.565Z,8.27
2022-10-24T04:40:10.043Z,7.30
2022-10-24T04:42:37.641Z,8.30
2022-10-24T04:45:05.822Z,7.47
2022-10-24T04:47:33.293Z,8.07
2022-10-24T04:50:00.765Z,9.00
2022-10-24T04:52:28.223Z,9.50
2022-10-24T04:54:56.289Z,8.40
2022-10-24T04:57:23.743Z,7.77
2022-10-24T04:59:51.147Z,8.63
2022-10-24T05:02:18.627Z,8.87
2022-10-24T05:04:46.175Z,8.70
2022-10-24T05:07:13.595Z,8.43
2022-10-24T05:09:41.116Z,9.53
2022-10-24T05:12:08.603Z,10.30
2022-10-24T05:14:36.071Z,9.20
2022-10-24T05:17:03.606Z,8.20
2022-10-24T05:19:31.143Z,7.90
2022-10-24T05:21:58.540Z,8.60
2022-10-24T05:24:25.955Z,8.67
2022-10-24T05:26:53.415Z,8.77
2022-10-24T05:29:20.810Z,8.83
2022-10-24T05:31:48.364Z,9.57
2022-10-24T05:34:15.808Z,9.03
2022-10-24T05:36:43.278Z,8.47
2022-10-24T05:39:10.765Z,8.37
2022-10-24T05:41:39.006Z,9.77
2022-10-24T05:44:09.872Z,11.60
2022-10-24T05:46:37.308Z,11.27
2022-10-24T05:49:05.896Z,10.43
2022-10-24T05:51:33.995Z,10.40
2022-10-24T05:54:01.428Z,10.50
2022-10-24T05:56:28.868Z,10.23
2022-10-24T05:58:57.829Z,10.80
2022-10-24T06:01:25.378Z,11.40
2022-10-24T06:03:53.067Z,11.30
2022-10-24T06:06:20.574Z,9.90
2022-10-24T06:08:48.079Z,10.87
2022-10-24T06:11:15.589Z,11.33
2022-10-24T06:13:43.070Z,11.20
2022-10-24T06:16:11.892Z,10.40
2022-10-24T06:18:40.129Z,9.70
2022-10-24T06:21:09.907Z,9.80
2022-10-24T06:23:37.624Z,9.67
2022-10-24T06:26:10.254Z,9.90
2022-10-24T06:28:39.184Z,10.17
2022-10-24T06:31:08.110Z,9.97
2022-10-24T06:33:36.151Z,9.70
2022-10-24T06:36:07.983Z,9.60
2022-10-24T06:38:36.855Z,9.37
2022-10-24T06:41:13.909Z,9.13
2022-10-24T06:43:42.689Z,9.63
2022-10-24T06:46:14.303Z,9.00
2022-10-24T06:48:42.078Z,9.13
2022-10-24T06:51:10.080Z,7.37
2022-10-24T06:53:37.475Z,7.17
2022-10-24T06:56:06.804Z,7.97
2022-10-24T06:58:37.039Z,7.63
2022-10-24T07:01:13.035Z,7.23
2022-10-24T07:03:40.896Z,7.63
2022-10-24T07:08:48.858Z,8.40
2022-10-24T07:11:16.338Z,8.60
2022-10-24T07:13:43.797Z,8.07
2022-10-24T07:16:11.591Z,8.67
2022-10-24T07:18:39.222Z,10.03
2022-10-24T07:21:19.476Z,10.13
2022-10-24T07:23:47.227Z,9.33
2022-10-24T07:26:16.730Z,7.97
2022-10-24T07:28:46.830Z,7.10
2022-10-24T07:31:17.976Z,6.33
2022-10-24T07:33:45.479Z,8.07
2022-10-24T07:36:20.771Z,6.80
2022-10-24T07:38:50.492Z,5.93
2022-10-24T07:41:18.633Z,5.87
2022-10-24T07:43:46.559Z,6.50
2022-10-24T07:46:16.789Z,6.27
2022-10-24T07:48:44.867Z,6.20
2022-10-24T07:51:15.948Z,6.27
2022-10-24T07:53:43.958Z,6.03
2022-10-24T07:56:15.828Z,6.03
2022-10-24T07:58:45.263Z,5.10
2022-10-24T08:01:23.171Z,4.80
2022-10-24T08:03:50.989Z,3.80
2022-10-24T08:06:22.792Z,3.83
2022-10-24T08:08:50.788Z,3.80
2022-10-24T08:11:25.206Z,3.93
2022-10-24T08:13:54.456Z,3.83
2022-10-24T08:16:23.580Z,3.63
2022-10-24T08:18:52.958Z,3.40
2022-10-24T08:21:22.925Z,3.23
2022-10-24T08:23:53.384Z,3.43
2022-10-24T08:26:24.031Z,3.67
2022-10-24T08:28:52.489Z,3.33
2022-10-24T08:31:23.056Z,3.70
2022-10-24T08:33:55.449Z,3.23
2022-10-24T08:36:31.690Z,2.83
2022-10-24T08:39:00.050Z,2.80
2022-10-24T08:41:39.450Z,2.90
2022-10-24T08:44:39.953Z,2.70
2022-10-24T08:47:47.412Z,2.60
2022-10-24T08:50:24.741Z,2.57
2022-10-24T08:53:05.434Z,3.00
2022-10-24T08:55:50.315Z,2.50
2022-10-24T08:58:29.464Z,2.53
2022-10-24T09:01:01.370Z,2.40
2022-10-24T09:03:55.695Z,2.70
2022-10-24T09:06:29.259Z,2.40
2022-10-24T09:09:04.657Z,2.50
2022-10-24T09:11:52.696Z,2.30
2022-10-24T09:14:33.602Z,3.27
2022-10-24T09:20:16.767Z,2.77
2022-10-24T09:22:45.138Z,2.40
2022-10-24T09:25:29.948Z,2.23
2022-10-24T09:28:02.096Z,2.63
2022-10-24T09:30:33.321Z,2.40
2022-10-24T09:33:21.934Z,2.40
2022-10-24T09:35:51.440Z,2.40
2022-10-24T09:38:35.091Z,2.30
2022-10-24T09:41:13.971Z,2.13
2022-10-24T09:43:44.029Z,2.83
2022-10-24T09:46:16.676Z,2.33
2022-10-24T09:49:09.007Z,2.13
2022-10-24T09:51:41.398Z,2.20
2022-10-24T09:54:21.239Z,2.27
2022-10-24T10:00:00.612Z,2.80
2022-10-24T10:02:34.638Z,2.40
2022-10-24T10:05:05.103Z,2.23
2022-10-24T10:07:43.018Z,1.77
2022-10-24T10:10:19.543Z,1.87
2022-10-24T10:13:00.893Z,1.90
2022-10-24T10:15:37.936Z,1.60
2022-10-24T10:18:29.595Z,2.40
2022-10-24T10:21:11.890Z,2.10
2022-10-24T10:23:54.061Z,1.87
2022-10-24T10:26:32.601Z,1.83
2022-10-24T10:29:23.938Z,1.92
2022-10-24T10:32:19.402Z,1.75
2022-10-24T10:34:56.704Z,1.88
2022-10-24T10:38:05.746Z,1.80
2022-10-24T10:41:06.199Z,1.80
2022-10-24T10:44:10.351Z,1.83
2022-10-24T10:47:00.095Z,1.80
2022-10-24T10:49:42.315Z,1.80
2022-10-24T10:52:32.653Z,1.97
2022-10-24T10:55:24.563Z,1.88
2022-10-24T11:01:45.743Z,1.50
2022-10-24T11:04:42.150Z,1.70
2022-10-24T11:07:49.029Z,1.60
2022-10-24T11:10:23.461Z,1.73
2022-10-24T11:12:51.365Z,1.80
2022-10-24T11:15:35.793Z,1.90
2022-10-24T11:18:20.555Z,1.92
2022-10-24T11:21:10.944Z,1.88
2022-10-24T11:23:54.424Z,1.92
2022-10-24T11:26:47.281Z,2.00
2022-10-24T11:29:42.524Z,1.67
2022-10-24T11:32:58.835Z,1.73
2022-10-24T11:35:30.507Z,1.90
2022-10-24T11:38:14.118Z,1.83
2022-10-24T11:40:44.442Z,1.90
2022-10-24T11:43:22.093Z,1.58
2022-10-24T11:46:00.737Z,1.98
2022-10-24T11:48:41.229Z,1.83
2022-10-24T11:51:22.356Z,1.95
2022-10-24T11:54:07.110Z,1.60
2022-10-24T11:56:51.749Z,1.60
2022-10-24T11:59:27.179Z,1.58
2022-10-24T12:02:12.950Z,2.10
2022-10-24T12:05:06.270Z,1.73
2022-10-24T12:07:50.539Z,1.90
2022-10-24T12:10:46.458Z,1.58
2022-10-24T12:13:41.834Z,1.50
2022-10-24T12:16:35.671Z,1.80
2022-10-24T12:19:10.313Z,2.00
2022-10-24T12:22:07.684Z,1.45
2022-10-24T12:24:39.135Z,1.75
2022-10-24T12:27:22.641Z,1.60
2022-10-24T12:30:15.730Z,1.80
2022-10-24T12:32:52.650Z,1.60
2022-10-24T12:35:32.038Z,1.63
2022-10-24T12:38:00.381Z,1.83
2022-10-24T12:40:54.570Z,1.45
2022-10-24T12:43:39.478Z,1.70
2022-10-24T12:46:20.207Z,1.80
2022-10-24T12:48:59.579Z,1.80
2022-10-24T12:51:31.983Z,1.70
2022-10-24T12:54:11.242Z,1.98
2022-10-24T12:57:02.305Z,1.85
2022-10-24T12:59:35.225Z,2.03
2022-10-24T13:02:12.699Z,2.05
2022-10-24T13:05:22.415Z,1.90
2022-10-24T13:07:53.199Z,2.28
2022-10-24T13:10:54.858Z,2.00
2022-10-24T13:14:21.173Z,2.13
2022-10-24T13:17:35.703Z,2.00
2022-10-24T13:20:30.304Z,2.30
2022-10-24T13:23:18.549Z,1.95
2022-10-24T13:25:46.968Z,1.85
2022-10-24T13:28:20.281Z,2.22
2022-10-24T13:31:00.088Z,1.90
2022-10-24T13:33:43.367Z,2.00
2022-10-24T13:36:14.957Z,2.20
2022-10-24T13:39:04.928Z,1.90
2022-10-24T13:41:39.081Z,1.98
2022-10-24T13:44:12.951Z,2.00
2022-10-24T13:46:53.461Z,2.40
2022-10-24T13:50:07.530Z,2.30
2022-10-24T13:52:59.499Z,2.30
2022-10-24T13:55:39.031Z,1.93
2022-10-24T13:58:06.725Z,2.53
2022-10-24T14:00:40.533Z,2.20
2022-10-24T14:03:21.202Z,2.30
2022-10-24T14:05:59.947Z,2.07
2022-10-24T14:08:38.121Z,2.07
2022-10-24T14:11:19.745Z,2.20
2022-10-24T14:13:55.439Z,2.03
2022-10-24T14:16:34.332Z,2.17
2022-10-24T14:19:29.751Z,2.00
2022-10-24T14:22:00.295Z,2.27
2022-10-24T14:24:30.972Z,2.67
2022-10-24T14:26:58.982Z,2.60
2022-10-24T14:29:32.742Z,2.13
2022-10-24T14:32:09.781Z,2.40
2022-10-24T14:34:39.494Z,2.23
2022-10-24T14:37:18.892Z,2.37
2022-10-24T14:39:46.463Z,2.60
2022-10-24T14:42:17.145Z,3.57
2022-10-24T14:44:47.049Z,2.50
2022-10-24T14:47:33.175Z,2.40
2022-10-24T14:50:01.050Z,2.50
2022-10-24T14:52:37.051Z,2.60
2022-10-24T14:55:27.194Z,2.87
2022-10-24T14:57:55.372Z,2.50
2022-10-24T15:00:28.989Z,2.30
2022-10-24T15:02:59.185Z,2.87
2022-10-24T15:05:30.748Z,2.97
2022-10-24T15:08:21.792Z,3.33
2022-10-24T15:11:05.060Z,4.00
2022-10-24T15:13:34.357Z,3.93
2022-10-24T15:16:02.388Z,3.37
2022-10-24T15:18:33.568Z,3.37
2022-10-24T15:21:04.415Z,3.67
2022-10-24T15:23:35.456Z,4.00
2022-10-24T15:26:37.215Z,3.23
2022-10-24T15:29:13.479Z,3.50
2022-10-24T15:31:46.494Z,3.40
2022-10-24T15:34:23.661Z,3.47
2022-10-24T15:36:52.785Z,3.80
2022-10-24T15:39:24.810Z,3.23
2022-10-24T15:41:53.324Z,3.33
2022-10-24T15:44:28.036Z,3.70
2022-10-24T15:46:56.156Z,3.87
2022-10-24T15:49:23.629Z,3.30
2022-10-24T15:51:51.865Z,3.20
2022-10-24T15:54:22.415Z,3.10
2022-10-24T15:56:50.426Z,2.80
2022-10-24T15:59:20.242Z,2.60
2022-10-24T16:01:56.328Z,2.63
2022-10-24T16:04:24.592Z,2.40
2022-10-24T16:06:52.785Z,2.53
2022-10-24T16:09:25.241Z,2.73
2022-10-24T16:11:52.728Z,2.70
2022-10-24T16:14:23.257Z,2.73
2022-10-24T16:16:50.776Z,2.50
2022-10-24T16:19:18.339Z,2.13
2022-10-24T16:21:45.799Z,2.67
2022-10-24T16:24:14.185Z,2.17
2022-10-24T16:26:41.929Z,2.40
2022-10-24T16:29:09.461Z,3.00
2022-10-24T16:31:37.268Z,4.10
2022-10-24T16:34:04.986Z,5.23
2022-10-24T16:36:32.949Z,8.43
2022-10-24T16:39:00.442Z,7.70
2022-10-24T16:41:28.005Z,8.00
2022-10-24T16:43:57.436Z,8.20
2022-10-24T16:46:27.261Z,10.47
2022-10-24T16:48:54.969Z,11.97
2022-10-24T16:51:27.733Z,8.83
2022-10-24T16:53:55.181Z,11.77
2022-10-24T16:56:22.674Z,17.53
2022-10-24T16:58:50.130Z,23.63
2022-10-24T17:01:17.642Z,16.03
2022-10-24T17:03:45.792Z,10.90
2022-10-24T17:06:13.801Z,12.40
2022-10-24T17:08:41.327Z,14.60
2022-10-24T17:11:26.109Z,13.27
2022-10-24T17:13:59.012Z,14.60
2022-10-24T17:16:26.795Z,15.37
2022-10-24T17:19:05.556Z,15.37
2022-10-24T17:21:42.738Z,19.00
2022-10-24T17:24:12.290Z,20.63
2022-10-24T17:26:41.368Z,19.10
2022-10-24T17:29:13.574Z,12.50
2022-10-24T17:31:41.137Z,14.83
2022-10-24T17:34:10.585Z,13.67
2022-10-24T17:36:39.255Z,15.00
2022-10-24T17:39:15.076Z,16.00
2022-10-24T17:41:44.600Z,16.13
2022-10-24T17:44:18.107Z,18.03
2022-10-24T17:46:46.280Z,18.60
2022-10-24T17:49:20.784Z,20.07
2022-10-24T17:51:49.498Z,21.53
2022-10-24T17:54:17.747Z,20.30
2022-10-24T17:56:45.351Z,14.90
2022-10-24T17:59:12.880Z,13.60
2022-10-24T18:01:40.535Z,10.83
2022-10-24T18:04:08.172Z,12.13
2022-10-24T18:06:39.391Z,12.67
2022-10-24T18:09:11.384Z,12.53
2022-10-24T18:11:40.137Z,15.07
2022-10-24T18:14:07.893Z,16.23
2022-10-24T18:16:37.691Z,15.60
2022-10-24T18:19:15.439Z,15.67
2022-10-24T18:21:43.962Z,15.07
2022-10-24T18:24:11.358Z,17.57
2022-10-24T18:26:38.910Z,13.97
2022-10-24T18:29:06.349Z,11.90
2022-10-24T18:31:34.658Z,9.90
2022-10-24T18:34:04.879Z,5.93
2022-10-24T18:36:37.173Z,5.90
2022-10-24T18:39:05.471Z,6.03
2022-10-24T18:41:48.889Z,5.67
2022-10-24T18:44:29.619Z,7.00
2022-10-24T18:47:01.579Z,6.33
2022-10-24T18:49:34.697Z,6.53
2022-10-24T18:52:40.317Z,6.77
2022-10-24T18:55:18.975Z,6.80
2022-10-24T18:57:47.925Z,6.13
2022-10-24T19:00:20.413Z,6.60
2022-10-24T19:03:21.908Z,6.23
2022-10-24T19:06:19.412Z,6.57
2022-10-24T19:08:46.998Z,7.43
2022-10-24T19:11:15.576Z,8.90
2022-10-24T19:13:45.051Z,7.57
2022-10-24T19:16:20.314Z,7.37
2022-10-24T19:18:55.969Z,7.73
2022-10-24T19:21:24.081Z,7.20
2022-10-24T19:23:52.084Z,7.40
2022-10-24T19:26:20.205Z,6.70
2022-10-24T19:28:47.703Z,7.10
2022-10-24T19:31:16.606Z,7.67
2022-10-24T19:33:44.108Z,6.70
2022-10-24T19:36:14.463Z,6.77
2022-10-24T19:38:44.347Z,6.53
2022-10-24T19:41:11.976Z,6.10
2022-10-24T19:43:39.460Z,6.37
2022-10-24T19:46:19.351Z,6.03
2022-10-24T19:48:49.558Z,6.67
2022-10-24T19:51:18.963Z,6.57
2022-10-24T19:53:48.076Z,6.50
2022-10-24T19:56:25.378Z,6.00
2022-10-24T19:58:55.383Z,6.30
2022-10-24T20:01:27.297Z,6.00
2022-10-24T20:03:56.055Z,6.10
2022-10-24T20:06:25.710Z,6.43
2022-10-24T20:08:53.560Z,6.60
2022-10-24T20:11:21.109Z,6.03
2022-10-24T20:13:50.498Z,6.33
2022-10-24T20:16:18.945Z,6.97
2022-10-24T20:18:47.495Z,6.70
2022-10-24T20:21:18.323Z,6.00
2022-10-24T20:23:49.353Z,7.50
2022-10-24T20:26:22.359Z,6.77
2022-10-24T20:28:52.197Z,6.57
2022-10-24T20:31:27.233Z,5.60
2022-10-24T20:34:08.101Z,7.00
2022-10-24T20:36:43.007Z,6.93
2022-10-24T20:39:11.169Z,9.03
2022-10-24T20:41:39.273Z,8.87
2022-10-24T20:44:07.348Z,8.07
2022-10-24T20:46:36.131Z,8.30
2022-10-24T20:49:04.544Z,11.97
2022-10-24T20:51:31.972Z,25.43
2022-10-24T20:53:59.490Z,24.43
2022-10-24T20:56:27.163Z,25.37
2022-10-24T20:58:56.334Z,27.70
2022-10-24T21:01:27.664Z,24.13
2022-10-24T21:03:56.752Z,22.53
2022-10-24T21:06:33.562Z,24.40
2022-10-24T21:11:36.957Z,18.83
2022-10-24T21:14:12.169Z,18.83
2022-10-24T21:16:39.619Z,18.47
2022-10-24T21:19:07.134Z,17.13
2022-10-24T21:21:34.583Z,14.30
2022-10-24T21:24:05.883Z,15.13
2022-10-24T21:26:38.539Z,14.47
2022-10-24T21:29:31.717Z,25.77
2022-10-24T21:31:54.631Z,19.83
2022-10-24T21:34:22.159Z,23.47
2022-10-24T21:36:49.868Z,17.67
2022-10-24T21:39:17.808Z,16.83
2022-10-24T21:41:45.744Z,17.83
2022-10-24T21:44:14.722Z,27.50
2022-10-24T21:46:42.338Z,26.67
2022-10-24T21:49:10.772Z,29.37
2022-10-24T21:51:39.463Z,21.37
2022-10-24T21:54:21.912Z,15.60
2022-10-24T21:56:49.740Z,15.50
2022-10-24T21:59:20.251Z,16.27
2022-10-24T22:01:50.131Z,13.83
2022-10-24T22:04:18.336Z,14.63
2022-10-24T22:06:46.918Z,11.20
2022-10-24T22:09:19.597Z,12.20
2022-10-24T22:11:47.711Z,11.13
2022-10-24T22:14:17.549Z,11.47
2022-10-24T22:16:45.532Z,14.30
2022-10-24T22:19:14.026Z,12.60
2022-10-24T22:21:46.307Z,12.23
2022-10-24T22:24:23.272Z,10.57
2022-10-24T22:26:52.536Z,12.90
2022-10-24T22:29:23.743Z,16.73
2022-10-24T22:31:53.278Z,15.07
2022-10-24T22:34:24.557Z,13.40
2022-10-24T22:37:25.457Z,14.30
2022-10-24T22:39:53.282Z,17.53
2022-10-24T22:42:21.005Z,15.57
2022-10-24T22:44:49.259Z,11.87
2022-10-24T22:47:25.145Z,11.10
2022-10-24T22:50:06.411Z,11.67
2022-10-24T22:52:34.352Z,12.13
2022-10-24T22:55:03.963Z,12.80
2022-10-24T22:57:32.447Z,13.00
2022-10-24T23:00:00.175Z,11.50
2022-10-24T23:02:33.542Z,9.33
2022-10-24T23:05:04.741Z,9.30
2022-10-24T23:07:49.959Z,9.77
2022-10-24T23:10:21.482Z,8.97
2022-10-24T23:12:50.605Z,10.90
2022-10-24T23:15:20.565Z,10.63
2022-10-24T23:17:49.144Z,12.70
2022-10-24T23:20:52.368Z,11.27
2022-10-24T23:23:29.231Z,10.23
2022-10-24T23:26:07.818Z,10.20
2022-10-24T23:29:12.022Z,9.90
2022-10-24T23:31:39.870Z,15.47
2022-10-24T23:34:09.950Z,14.57
2022-10-24T23:36:37.848Z,9.90
2022-10-24T23:39:05.756Z,10.23
2022-10-24T23:41:33.634Z,13.00
2022-10-24T23:44:01.409Z,10.47
2022-10-24T23:46:38.014Z,11.93
2022-10-24T23:49:23.413Z,12.43
2022-10-24T23:52:18.533Z,13.60
2022-10-24T23:54:46.429Z,10.73
2022-10-24T23:57:19.950Z,10.30
2022-10-24T23:59:47.567Z,7.60
